TimeCST,TemperatureF,Dew PointF,Humidity,Sea Level PressureIn,VisibilityMPH,Wind Direction,Wind SpeedMPH,Gust SpeedMPH,PrecipitationIn,Events,Conditions,WindDirDegrees,DateUTC
1:53 AM,63.0,60.1,90,30.00,10.0,South,10.4,-,N/A,,Clear,170,2012-12-01 07:53:00
2:53 AM,62.1,60.1,93,30.00,10.0,South,9.2,-,N/A,,Clear,180,2012-12-01 08:53:00
3:53 AM,61.0,60.1,97,29.99,10.0,South,9.2,-,N/A,,Clear,180,2012-12-01 09:53:00
4:53 AM,61.0,59.0,93,29.99,10.0,South,11.5,-,N/A,,Clear,180,2012-12-01 10:53:00
5:14 AM,62.6,60.8,94,30.01,10.0,South,13.8,23.0,N/A,,Mostly Cloudy,190,2012-12-01 11:14:00
5:39 AM,62.6,60.8,94,30.01,8.0,South,9.2,20.7,N/A,,Scattered Clouds,190,2012-12-01 11:39:00
5:53 AM,63.0,61.0,93,29.99,8.0,South,10.4,19.6,N/A,,Clear,190,2012-12-01 11:53:00
6:28 AM,62.6,60.8,94,30.01,8.0,South,11.5,19.6,N/A,,Mostly Cloudy,180,2012-12-01 12:28:00
6:44 AM,64.4,62.6,94,30.01,8.0,South,12.7,20.7,N/A,,Scattered Clouds,190,2012-12-01 12:44:00
6:53 AM,64.0,62.1,93,29.99,8.0,South,9.2,18.4,N/A,,Scattered Clouds,180,2012-12-01 12:53:00
7:24 AM,64.4,62.6,94,30.02,8.0,South,12.7,20.7,N/A,,Mostly Cloudy,190,2012-12-01 13:24:00
7:38 AM,64.4,62.6,94,30.02,8.0,South,11.5,24.2,N/A,,Overcast,190,2012-12-01 13:38:00
7:53 AM,64.9,63.0,93,30.01,8.0,South,13.8,18.4,N/A,,Mostly Cloudy,180,2012-12-01 13:53:00
8:13 AM,66.2,62.6,88,30.03,8.0,South,10.4,-,N/A,,Scattered Clouds,180,2012-12-01 14:13:00
8:36 AM,66.2,62.6,88,30.03,8.0,South,17.3,28.8,N/A,,Mostly Cloudy,190,2012-12-01 14:36:00
8:53 AM,66.9,63.0,87,30.01,9.0,South,13.8,21.9,N/A,,Overcast,190,2012-12-01 14:53:00
9:53 AM,71.1,63.0,75,30.01,10.0,South,17.3,26.5,N/A,,Mostly Cloudy,190,2012-12-01 15:53:00
10:53 AM,75.0,62.1,64,30.00,10.0,SSW,13.8,27.6,N/A,,Mostly Cloudy,200,2012-12-01 16:53:00
11:17 AM,75.2,60.8,61,30.02,10.0,SSW,15.0,29.9,N/A,,Scattered Clouds,200,2012-12-01 17:17:00
11:53 AM,75.9,60.1,58,29.97,10.0,SSW,17.3,29.9,N/A,,Scattered Clouds,200,2012-12-01 17:53:00
12:53 PM,80.1,60.1,50,29.94,10.0,SSW,16.1,24.2,N/A,,Partly Cloudy,200,2012-12-01 18:53:00
1:53 PM,81.0,59.0,47,29.90,10.0,South,17.3,29.9,N/A,,Partly Cloudy,190,2012-12-01 19:53:00
2:53 PM,82.0,59.0,45,29.88,10.0,South,16.1,25.3,N/A,,Partly Cloudy,190,2012-12-01 20:53:00
3:53 PM,82.0,59.0,45,29.88,10.0,South,13.8,20.7,N/A,,Partly Cloudy,190,2012-12-01 21:53:00
4:53 PM,79.0,59.0,50,29.89,10.0,South,10.4,20.7,N/A,,Partly Cloudy,180,2012-12-01 22:53:00
5:53 PM,75.9,57.9,54,29.90,10.0,South,8.1,-,N/A,,Clear,180,2012-12-01 23:53:00
6:53 PM,75.0,57.9,55,29.91,10.0,South,10.4,-,N/A,,Clear,180,2012-12-02 00:53:00
7:53 PM,73.9,57.9,57,29.92,10.0,South,11.5,19.6,N/A,,Clear,180,2012-12-02 01:53:00
8:53 PM,72.0,57.9,61,29.94,10.0,South,12.7,-,N/A,,Clear,190,2012-12-02 02:53:00
9:53 PM,72.0,59.0,64,29.94,10.0,SSW,13.8,21.9,N/A,,Clear,200,2012-12-02 03:53:00
10:53 PM,71.1,59.0,66,29.96,10.0,SSW,11.5,20.7,N/A,,Clear,200,2012-12-02 04:53:00
11:53 PM,69.1,59.0,70,29.96,10.0,SSW,11.5,20.7,N/A,,Clear,200,2012-12-02 05:53:00